createdAt,value
2018-02-24T00:00:37.160Z,0
2018-02-24T00:01:37.190Z,0
2018-02-24T00:02:36.619Z,0
2018-02-24T00:03:37.412Z,0
2018-02-24T00:04:37.119Z,0
2018-02-24T00:05:37.356Z,0
2018-02-24T00:06:37.096Z,0
2018-02-24T00:07:37.415Z,0
2018-02-24T00:08:37.329Z,0
2018-02-24T00:09:37.308Z,0
2018-02-24T00:10:37.041Z,0
2018-02-24T00:11:37.311Z,0
2018-02-24T00:12:37.012Z,0
2018-02-24T00:13:37.265Z,0
2018-02-24T00:14:37.249Z,0
2018-02-24T00:15:36.992Z,0
2018-02-24T00:16:36.995Z,0
2018-02-24T00:17:37.273Z,0
2018-02-24T00:18:37.220Z,0
2018-02-24T00:19:37.179Z,0
2018-02-24T00:20:36.973Z,0
2018-02-24T00:21:36.672Z,0
2018-02-24T00:22:37.366Z,0
2018-02-24T00:23:37.147Z,0
2018-02-24T00:24:37.136Z,0
2018-02-24T00:25:37.128Z,0
2018-02-24T00:26:37.132Z,0
2018-02-24T00:27:36.836Z,0
2018-02-24T00:28:36.858Z,0
2018-02-24T00:29:36.825Z,0
2018-02-24T00:30:37.071Z,0
2018-02-24T00:31:37.040Z,0
2018-02-24T00:32:37.040Z,0
2018-02-24T00:33:36.766Z,0
2018-02-24T00:34:37.227Z,0
2018-02-24T00:35:36.583Z,0
2018-02-24T00:36:36.737Z,0
2018-02-24T00:37:36.983Z,0
2018-02-24T00:38:36.709Z,0
2018-02-24T00:39:36.945Z,0
2018-02-24T00:40:36.688Z,0
2018-02-24T00:41:36.949Z,0
2018-02-24T00:42:36.665Z,0
2018-02-24T00:43:36.652Z,0
2018-02-24T00:44:36.902Z,0
2018-02-24T00:45:36.376Z,0
2018-02-24T00:46:36.364Z,0
2018-02-24T00:47:36.876Z,0
2018-02-24T00:48:36.852Z,0
2018-02-24T00:49:36.572Z,0
2018-02-24T00:50:36.833Z,0
2018-02-24T00:51:36.307Z,0
2018-02-24T00:52:38.656Z,0
2018-02-24T00:53:36.782Z,0
2018-02-24T00:54:36.883Z,0
2018-02-24T00:55:36.771Z,0
2018-02-24T00:56:36.237Z,0
2018-02-24T00:57:36.806Z,0
2018-02-24T00:58:36.557Z,0
2018-02-24T00:59:36.704Z,0
2018-02-24T01:00:36.439Z,0
2018-02-24T01:01:36.682Z,0
2018-02-24T01:02:36.644Z,0
2018-02-24T01:03:36.402Z,0
2018-02-24T01:04:36.154Z,0
2018-02-24T01:05:36.718Z,0
2018-02-24T01:06:36.619Z,0
2018-02-24T01:07:36.107Z,0
2018-02-24T01:08:36.342Z,0
2018-02-24T01:09:36.600Z,0
2018-02-24T01:10:36.575Z,0
2018-02-24T01:11:36.315Z,0
2018-02-24T01:12:36.560Z,0
2018-02-24T01:13:36.290Z,0
2018-02-24T01:14:36.533Z,0
2018-02-24T01:15:36.276Z,0
2018-02-24T01:16:36.503Z,0
2018-02-24T01:17:36.234Z,0
2018-02-24T01:18:36.225Z,0
2018-02-24T01:19:36.469Z,0
2018-02-24T01:20:35.950Z,0
2018-02-24T01:21:36.458Z,0
2018-02-24T01:22:36.499Z,0
2018-02-24T01:23:36.177Z,0
2018-02-24T01:24:36.162Z,0
2018-02-24T01:25:36.402Z,0
2018-02-24T01:26:36.145Z,0
2018-02-24T01:27:36.156Z,0
2018-02-24T01:28:35.852Z,0
2018-02-24T01:29:35.842Z,0
2018-02-24T01:30:36.340Z,0
2018-02-24T01:31:36.342Z,0
2018-02-24T01:32:36.061Z,0
2018-02-24T01:33:36.302Z,0
2018-02-24T01:34:35.794Z,0
2018-02-24T01:35:37.081Z,0
2018-02-24T01:36:36.023Z,0
2018-02-24T01:37:35.767Z,0
2018-02-24T01:38:36.261Z,0
2018-02-24T01:39:36.227Z,0
2018-02-24T01:40:35.724Z,0
2018-02-24T01:41:36.063Z,0
2018-02-24T01:42:35.694Z,0
2018-02-24T01:43:35.926Z,0
2018-02-24T01:44:35.916Z,0
2018-02-24T01:45:35.393Z,0
2018-02-24T01:46:35.885Z,0
2018-02-24T01:47:36.137Z,0
2018-02-24T01:48:35.864Z,0
2018-02-24T01:49:35.867Z,0
2018-02-24T01:50:36.099Z,0
2018-02-24T01:51:36.093Z,0
2018-02-24T01:52:36.090Z,0
2018-02-24T01:53:35.562Z,0
2018-02-24T01:54:36.122Z,0
2018-02-24T01:55:35.536Z,0
2018-02-24T01:56:36.024Z,0
2018-02-24T01:57:35.760Z,0
2018-02-24T01:58:35.520Z,0
2018-02-24T01:59:35.993Z,0
2018-02-24T02:00:35.467Z,0
2018-02-24T02:01:35.980Z,0
2018-02-24T02:02:35.955Z,0
2018-02-24T02:03:35.940Z,0
2018-02-24T02:04:35.671Z,0
2018-02-24T02:05:35.927Z,0
2018-02-24T02:06:35.901Z,0
2018-02-24T02:07:35.888Z,0
2018-02-24T02:08:35.884Z,0
2018-02-24T02:09:35.414Z,0
2018-02-24T02:10:35.342Z,0
2018-02-24T02:11:35.844Z,0
2018-02-24T02:12:35.572Z,0
2018-02-24T02:13:35.827Z,0
2018-02-24T02:14:35.813Z,0
2018-02-24T02:15:35.301Z,0
2018-02-24T02:16:35.530Z,0
2018-02-24T02:17:35.775Z,0
2018-02-24T02:18:35.251Z,0
2018-02-24T02:19:35.485Z,0
2018-02-24T02:20:35.236Z,0
2018-02-24T02:21:35.473Z,0
2018-02-24T02:22:35.468Z,0
2018-02-24T02:23:35.188Z,0
2018-02-24T02:24:35.442Z,0
2018-02-24T02:25:35.423Z,0
2018-02-24T02:26:35.659Z,0
2018-02-24T02:27:35.146Z,0
2018-02-24T02:28:35.125Z,0
2018-02-24T02:29:35.138Z,0
2018-02-24T02:30:35.133Z,0
2018-02-24T02:31:35.349Z,0
2018-02-24T02:32:35.339Z,0
2018-02-24T02:33:35.088Z,0
2018-02-24T02:34:35.315Z,0
2018-02-24T02:35:35.556Z,0
2018-02-24T02:36:35.557Z,0
2018-02-24T02:37:35.278Z,0
2018-02-24T02:38:35.524Z,0
2018-02-24T02:39:35.010Z,0
2018-02-24T02:40:35.029Z,0
2018-02-24T02:41:35.482Z,0
2018-02-24T02:42:35.482Z,0
2018-02-24T02:43:34.947Z,0
2018-02-24T02:44:35.201Z,0
2018-02-24T02:45:35.185Z,0
2018-02-24T02:46:35.477Z,0
2018-02-24T02:47:35.418Z,0
2018-02-24T02:48:35.393Z,0
2018-02-24T02:49:34.869Z,0
2018-02-24T02:50:35.132Z,0
2018-02-24T02:51:35.120Z,0
2018-02-24T02:52:34.836Z,0
2018-02-24T02:53:35.349Z,0
2018-02-24T02:54:35.332Z,0
2018-02-24T02:55:35.079Z,0
2018-02-24T02:56:35.053Z,0
2018-02-24T02:57:35.044Z,0
2018-02-24T02:58:35.284Z,0
2018-02-24T02:59:35.257Z,0
2018-02-24T03:00:34.750Z,0
2018-02-24T03:01:35.071Z,0
2018-02-24T03:02:35.244Z,0
2018-02-24T03:03:34.705Z,0
2018-02-24T03:04:35.213Z,0
2018-02-24T03:05:35.201Z,0
2018-02-24T03:06:35.176Z,0
2018-02-24T03:07:35.160Z,0
2018-02-24T03:08:35.150Z,0
2018-02-24T03:09:34.639Z,0
2018-02-24T03:10:35.148Z,0
2018-02-24T03:11:35.114Z,0
2018-02-24T03:12:34.844Z,0
2018-02-24T03:13:35.090Z,0
2018-02-24T03:14:35.091Z,0
2018-02-24T03:15:35.093Z,0
2018-02-24T03:16:35.058Z,0
2018-02-24T03:17:35.055Z,0
2018-02-24T03:18:34.772Z,0
2018-02-24T03:19:35.022Z,0
2018-02-24T03:20:34.761Z,0
2018-02-24T03:21:34.984Z,0
2018-02-24T03:22:34.985Z,0
2018-02-24T03:23:34.964Z,0
2018-02-24T03:24:34.955Z,0
2018-02-24T03:25:34.689Z,0
2018-02-24T03:26:34.663Z,0
2018-02-24T03:27:34.660Z,0
2018-02-24T03:28:34.635Z,0
2018-02-24T03:29:34.882Z,0
2018-02-24T03:30:34.911Z,0
2018-02-24T03:31:34.548Z,0
2018-02-24T03:32:34.584Z,0
2018-02-24T03:33:34.570Z,0
2018-02-24T03:34:34.835Z,0
2018-02-24T03:35:35.773Z,0
2018-02-24T03:36:34.530Z,0
2018-02-24T03:37:34.528Z,0
2018-02-24T03:38:34.756Z,0
2018-02-24T03:39:34.752Z,0
2018-02-24T03:40:34.753Z,0
2018-02-24T03:41:34.472Z,0
2018-02-24T03:42:34.709Z,0
2018-02-24T03:43:34.693Z,0
2018-02-24T03:44:34.424Z,0
2018-02-24T03:45:34.684Z,0
2018-02-24T03:46:34.660Z,0
2018-02-24T03:47:34.397Z,0
2018-02-24T03:48:34.626Z,0
2018-02-24T03:49:33.854Z,0
2018-02-24T03:50:33.837Z,0
2018-02-24T03:51:34.578Z,0
2018-02-24T03:52:34.566Z,0
2018-02-24T03:53:34.554Z,0
2018-02-24T03:54:34.297Z,0
2018-02-24T03:55:34.284Z,0
2018-02-24T03:56:34.528Z,0
2018-02-24T03:57:34.500Z,0
2018-02-24T03:58:34.243Z,0
2018-02-24T03:59:34.220Z,0
2018-02-24T04:00:34.468Z,0
2018-02-24T04:01:34.193Z,0
2018-02-24T04:02:34.185Z,0
2018-02-24T04:03:34.423Z,0
2018-02-24T04:04:34.414Z,0
2018-02-24T04:05:34.402Z,0
2018-02-24T04:06:34.440Z,0
2018-02-24T04:07:34.375Z,0
2018-02-24T04:08:34.360Z,0
2018-02-24T04:09:34.347Z,0
2018-02-24T04:10:34.340Z,0
2018-02-24T04:11:34.060Z,0
2018-02-24T04:12:34.045Z,0
2018-02-24T04:13:34.031Z,0
2018-02-24T04:14:34.039Z,0
2018-02-24T04:15:34.279Z,0
2018-02-24T04:16:34.295Z,0
2018-02-24T04:17:33.988Z,0
2018-02-24T04:18:34.226Z,0
2018-02-24T04:19:34.225Z,0
2018-02-24T04:20:34.190Z,0
2018-02-24T04:21:35.435Z,0
2018-02-24T04:22:33.910Z,0
2018-02-24T04:23:34.143Z,0
2018-02-24T04:24:33.880Z,0
2018-02-24T04:25:34.147Z,0
2018-02-24T04:26:33.862Z,0
2018-02-24T04:27:34.091Z,0
2018-02-24T04:28:33.852Z,0
2018-02-24T04:29:34.063Z,0
2018-02-24T04:30:33.805Z,0
2018-02-24T04:31:34.078Z,0
2018-02-24T04:32:34.041Z,0
2018-02-24T04:33:33.503Z,0
2018-02-24T04:34:33.741Z,0
2018-02-24T04:35:33.731Z,0
2018-02-24T04:36:36.648Z,0
2018-02-24T04:37:33.707Z,0
2018-02-24T04:38:33.944Z,0
2018-02-24T04:39:33.683Z,0
2018-02-24T04:40:33.924Z,0
2018-02-24T04:41:33.647Z,0
2018-02-24T04:42:33.629Z,0
2018-02-24T04:43:33.881Z,0
2018-02-24T04:44:33.647Z,0
2018-02-24T04:45:33.850Z,0
2018-02-24T04:46:33.827Z,0
2018-02-24T04:47:33.825Z,0
2018-02-24T04:48:33.807Z,0
2018-02-24T04:49:33.557Z,0
2018-02-24T04:50:33.788Z,0
2018-02-24T04:51:33.261Z,0
2018-02-24T04:52:33.509Z,0
2018-02-24T04:53:33.749Z,0
2018-02-24T04:54:33.243Z,0
2018-02-24T04:55:33.714Z,0
2018-02-24T04:56:33.690Z,0
2018-02-24T04:57:33.171Z,0
2018-02-24T04:58:33.410Z,0
2018-02-24T04:59:33.410Z,0
2018-02-24T05:00:33.624Z,0
2018-02-24T05:01:33.628Z,0
2018-02-24T05:02:33.614Z,0
2018-02-24T05:03:33.593Z,0
2018-02-24T05:04:33.589Z,0
2018-02-24T05:05:33.563Z,0
2018-02-24T05:06:33.301Z,0
2018-02-24T05:07:34.323Z,0
2018-02-24T05:08:33.465Z,0
2018-02-24T05:09:33.263Z,0
2018-02-24T05:10:33.514Z,0
2018-02-24T05:11:33.230Z,0
2018-02-24T05:12:32.953Z,0
2018-02-24T05:13:33.465Z,0
2018-02-24T05:14:33.437Z,0
2018-02-24T05:15:33.430Z,0
2018-02-24T05:16:33.147Z,0
2018-02-24T05:17:33.405Z,0
2018-02-24T05:18:33.128Z,0
2018-02-24T05:19:33.358Z,0
2018-02-24T05:20:33.369Z,0
2018-02-24T05:21:33.341Z,0
2018-02-24T05:22:33.320Z,0
2018-02-24T05:23:33.066Z,0
2018-02-24T05:24:33.062Z,0
2018-02-24T05:25:32.771Z,0
2018-02-24T05:26:33.015Z,0
2018-02-24T05:27:32.766Z,0
2018-02-24T05:28:33.022Z,0
2018-02-24T05:29:32.967Z,0
2018-02-24T05:30:33.206Z,0
2018-02-24T05:31:33.201Z,0
2018-02-24T05:32:33.181Z,0
2018-02-24T05:33:33.175Z,0
2018-02-24T05:34:32.394Z,0
2018-02-24T05:35:33.137Z,0
2018-02-24T05:36:32.880Z,0
2018-02-24T05:37:38.200Z,0
2018-02-24T05:38:33.094Z,0
2018-02-24T05:39:33.086Z,0
2018-02-24T05:40:33.069Z,0
2018-02-24T05:41:32.793Z,0
2018-02-24T05:42:32.529Z,4
2018-02-24T05:43:32.763Z,0
2018-02-24T05:44:33.012Z,0
2018-02-24T05:45:32.482Z,4
2018-02-24T05:46:32.724Z,4
2018-02-24T05:47:32.968Z,4
2018-02-24T05:48:32.703Z,4
2018-02-24T05:49:32.428Z,4
2018-02-24T05:50:32.667Z,4
2018-02-24T05:51:32.653Z,4
2018-02-24T05:52:32.892Z,8
2018-02-24T05:53:32.900Z,8
2018-02-24T05:54:32.610Z,8
2018-02-24T05:55:32.859Z,12
2018-02-24T05:56:32.842Z,12
2018-02-24T05:57:32.872Z,16
2018-02-24T05:58:32.299Z,20
2018-02-24T05:59:32.790Z,24
2018-02-24T06:00:32.524Z,32
2018-02-24T06:01:32.520Z,36
2018-02-24T06:02:32.510Z,44
2018-02-24T06:03:32.739Z,48
2018-02-24T06:04:32.719Z,56
2018-02-24T06:05:32.447Z,64
2018-02-24T06:06:32.438Z,76
2018-02-24T06:07:32.428Z,84
2018-02-24T06:08:32.954Z,96
2018-02-24T06:09:32.679Z,112
2018-02-24T06:10:32.630Z,128
2018-02-24T06:11:32.375Z,144
2018-02-24T06:12:32.631Z,152
2018-02-24T06:13:32.587Z,172
2018-02-24T06:14:32.578Z,192
2018-02-24T06:15:32.315Z,212
2018-02-24T06:16:32.540Z,236
2018-02-24T06:17:32.307Z,256
2018-02-24T06:18:32.268Z,280
2018-02-24T06:19:32.499Z,304
2018-02-24T06:20:32.485Z,332
2018-02-24T06:21:32.492Z,360
2018-02-24T06:22:32.211Z,388
2018-02-24T06:23:34.300Z,420
2018-02-24T06:24:32.170Z,452
2018-02-24T06:25:32.416Z,484
2018-02-24T06:26:31.899Z,520
2018-02-24T06:27:32.126Z,552
2018-02-24T06:28:31.876Z,592
2018-02-24T06:29:32.115Z,628
2018-02-24T06:30:32.084Z,668
2018-02-24T06:31:32.328Z,700
2018-02-24T06:32:32.054Z,744
2018-02-24T06:33:32.307Z,784
2018-02-24T06:34:32.283Z,828
2018-02-24T06:35:32.016Z,868
2018-02-24T06:36:32.263Z,912
2018-02-24T06:37:31.740Z,960
2018-02-24T06:38:34.374Z,1004
2018-02-24T06:39:32.211Z,1048
2018-02-24T06:40:32.196Z,1096
2018-02-24T06:41:32.183Z,1144
2018-02-24T06:42:32.182Z,1192
2018-02-24T06:43:31.911Z,1236
2018-02-24T06:44:32.149Z,1288
2018-02-24T06:45:31.867Z,1336
2018-02-24T06:46:32.118Z,1384
2018-02-24T06:47:31.849Z,1432
2018-02-24T06:48:32.095Z,1484
2018-02-24T06:49:31.845Z,1532
2018-02-24T06:50:32.098Z,1584
2018-02-24T06:51:31.778Z,1624
2018-02-24T06:52:32.018Z,1672
2018-02-24T06:53:32.308Z,1720
2018-02-24T06:54:31.742Z,1764
2018-02-24T06:55:31.469Z,1812
2018-02-24T06:56:31.969Z,1860
2018-02-24T06:57:31.954Z,1912
2018-02-24T06:58:31.182Z,1960
2018-02-24T06:59:31.673Z,2008
2018-02-24T07:00:31.897Z,2048
2018-02-24T07:01:31.637Z,2100
2018-02-24T07:02:31.872Z,2152
2018-02-24T07:03:31.871Z,2200
2018-02-24T07:04:31.339Z,2240
2018-02-24T07:05:31.577Z,2284
2018-02-24T07:06:31.823Z,2328
2018-02-24T07:07:31.908Z,2364
2018-02-24T07:08:31.788Z,2408
2018-02-24T07:09:31.521Z,2456
2018-02-24T07:10:31.524Z,2492
2018-02-24T07:11:31.495Z,2540
2018-02-24T07:12:31.473Z,2572
2018-02-24T07:13:31.736Z,2676
2018-02-24T07:14:31.223Z,2656
2018-02-24T07:15:31.693Z,2696
2018-02-24T07:16:31.673Z,2736
2018-02-24T07:17:31.418Z,2784
2018-02-24T07:18:31.455Z,2832
2018-02-24T07:19:31.673Z,2872
2018-02-24T07:20:31.697Z,2916
2018-02-24T07:21:31.352Z,2952
2018-02-24T07:22:31.587Z,2988
2018-02-24T07:23:31.569Z,3104
2018-02-24T07:24:32.427Z,3060
2018-02-24T07:25:31.554Z,3104
2018-02-24T07:26:31.542Z,3152
2018-02-24T07:27:31.283Z,3184
2018-02-24T07:28:31.260Z,3232
2018-02-24T07:29:31.513Z,3280
2018-02-24T07:30:30.969Z,3380
2018-02-24T07:31:31.484Z,3592
2018-02-24T07:32:30.957Z,3884
2018-02-24T07:33:31.456Z,4136
2018-02-24T07:34:31.441Z,4332
2018-02-24T07:35:31.207Z,4484
2018-02-24T07:36:31.148Z,4560
2018-02-24T07:37:30.882Z,4656
2018-02-24T07:38:30.889Z,4724
2018-02-24T07:39:32.475Z,4732
2018-02-24T07:40:31.143Z,4812
2018-02-24T07:41:31.351Z,4860
2018-02-24T07:42:31.338Z,4880
2018-02-24T07:43:31.063Z,4928
2018-02-24T07:44:30.541Z,4992
2018-02-24T07:45:31.297Z,5024
2018-02-24T07:46:31.298Z,5084
2018-02-24T07:47:31.013Z,5076
2018-02-24T07:48:31.272Z,5156
2018-02-24T07:49:31.318Z,5232
2018-02-24T07:50:31.311Z,5252
2018-02-24T07:51:30.999Z,5268
2018-02-24T07:52:30.976Z,5320
2018-02-24T07:53:30.960Z,5368
2018-02-24T07:54:30.692Z,5392
2018-02-24T07:55:30.943Z,5404
2018-02-24T07:56:30.942Z,5448
2018-02-24T07:57:30.672Z,5496
2018-02-24T07:58:30.915Z,5552
2018-02-24T07:59:30.713Z,5600
2018-02-24T08:00:30.912Z,5612
2018-02-24T08:01:31.162Z,5720
2018-02-24T08:02:30.893Z,5636
2018-02-24T08:03:31.119Z,5688
2018-02-24T08:04:31.141Z,5664
2018-02-24T08:05:30.858Z,5652
2018-02-24T08:06:31.103Z,5668
2018-02-24T08:07:30.837Z,5684
2018-02-24T08:08:31.138Z,5664
2018-02-24T08:09:31.071Z,5632
2018-02-24T08:10:31.067Z,5668
2018-02-24T08:11:30.299Z,5720
2018-02-24T08:12:31.048Z,5772
2018-02-24T08:13:31.043Z,5776
2018-02-24T08:14:30.774Z,5808
2018-02-24T08:15:30.781Z,5772
2018-02-24T08:16:31.012Z,5836
2018-02-24T08:17:30.831Z,5828
2018-02-24T08:18:30.751Z,5920
2018-02-24T08:19:30.741Z,5972
2018-02-24T08:20:30.724Z,5964
2018-02-24T08:21:30.483Z,5920
2018-02-24T08:22:30.718Z,5992
2018-02-24T08:23:30.968Z,6060
2018-02-24T08:24:30.951Z,6052
2018-02-24T08:25:30.696Z,6064
2018-02-24T08:26:30.681Z,6140
2018-02-24T08:27:30.931Z,6100
2018-02-24T08:28:30.918Z,6180
2018-02-24T08:29:30.908Z,6180
2018-02-24T08:30:30.910Z,6156
2018-02-24T08:31:30.901Z,6180
2018-02-24T08:32:30.378Z,6240
2018-02-24T08:33:30.370Z,6264
2018-02-24T08:34:30.613Z,6268
2018-02-24T08:35:30.357Z,6336
2018-02-24T08:36:30.858Z,6332
2018-02-24T08:37:30.594Z,6380
2018-02-24T08:38:30.577Z,6400
2018-02-24T08:40:02.422Z,6444
2018-02-24T08:40:33.968Z,6432
2018-02-24T08:41:30.804Z,6492
2018-02-24T08:42:30.544Z,6496
2018-02-24T08:43:30.790Z,6540
2018-02-24T08:44:30.781Z,6536
2018-02-24T08:45:30.774Z,6624
2018-02-24T08:46:30.525Z,6624
2018-02-24T08:47:30.742Z,6632
2018-02-24T08:48:31.811Z,6676
2018-02-24T08:49:30.468Z,6720
2018-02-24T08:50:30.749Z,6700
2018-02-24T08:51:30.701Z,6752
2018-02-24T08:52:30.436Z,6772
2018-02-24T08:53:30.683Z,6736
2018-02-24T08:54:30.408Z,6772
2018-02-24T08:55:30.654Z,6840
2018-02-24T08:56:30.637Z,6832
2018-02-24T08:57:30.374Z,6856
2018-02-24T08:58:30.620Z,6868
2018-02-24T08:59:30.622Z,6828
2018-02-24T09:00:30.601Z,6856
2018-02-24T09:01:30.906Z,6916
2018-02-24T09:02:30.569Z,6904
2018-02-24T09:03:30.315Z,6920
2018-02-24T09:04:30.391Z,6876
2018-02-24T09:05:30.033Z,6932
2018-02-24T09:06:30.529Z,6932
2018-02-24T09:07:30.514Z,6912
2018-02-24T09:08:30.079Z,6964
2018-02-24T09:09:30.233Z,6960
2018-02-24T09:10:30.481Z,6924
2018-02-24T09:11:33.408Z,6952
2018-02-24T09:12:30.450Z,6964
2018-02-24T09:13:30.196Z,6960
2018-02-24T09:14:30.481Z,6992
2018-02-24T09:15:29.910Z,6920
2018-02-24T09:16:30.151Z,6940
2018-02-24T09:17:29.956Z,6964
2018-02-24T09:18:30.171Z,6908
2018-02-24T09:19:29.881Z,6916
2018-02-24T09:20:30.410Z,6944
2018-02-24T09:21:30.089Z,6876
2018-02-24T09:22:30.471Z,6884
2018-02-24T09:23:30.355Z,6904
2018-02-24T09:24:30.079Z,6900
2018-02-24T09:25:29.861Z,6896
2018-02-24T09:26:30.047Z,6856
2018-02-24T09:27:30.051Z,6888
2018-02-24T09:28:30.257Z,6900
2018-02-24T09:29:30.010Z,6852
2018-02-24T09:30:29.732Z,6868
2018-02-24T09:31:29.979Z,6840
2018-02-24T09:32:29.727Z,6864
2018-02-24T09:33:29.700Z,6812
2018-02-24T09:34:30.200Z,6836
2018-02-24T09:35:29.924Z,6808
2018-02-24T09:36:30.027Z,6812
2018-02-24T09:37:30.154Z,6812
2018-02-24T09:38:30.158Z,6792
2018-02-24T09:39:29.889Z,6796
2018-02-24T09:40:29.875Z,6676
2018-02-24T09:41:29.621Z,6468
2018-02-24T09:42:31.111Z,6592
2018-02-24T09:43:29.845Z,6676
2018-02-24T09:44:29.326Z,6832
2018-02-24T09:45:29.874Z,6816
2018-02-24T09:46:30.075Z,6780
2018-02-24T09:47:30.053Z,6764
2018-02-24T09:48:29.786Z,6752
2018-02-24T09:49:29.265Z,6728
2018-02-24T09:50:29.765Z,6720
2018-02-24T09:51:29.755Z,6728
2018-02-24T09:52:29.731Z,6720
2018-02-24T09:53:29.995Z,6720
2018-02-24T09:54:29.475Z,6696
2018-02-24T09:55:29.197Z,6680
2018-02-24T09:56:29.958Z,6664
2018-02-24T09:57:29.948Z,6652
2018-02-24T09:58:29.672Z,6676
2018-02-24T09:59:29.412Z,6676
2018-02-24T10:00:29.655Z,6628
2018-02-24T10:01:29.954Z,6644
2018-02-24T10:02:29.901Z,6652
2018-02-24T10:03:29.632Z,6632
2018-02-24T10:04:29.357Z,6600
2018-02-24T10:05:29.602Z,6584
2018-02-24T10:06:29.591Z,6596
2018-02-24T10:07:29.843Z,6624
2018-02-24T10:08:29.816Z,6584
2018-02-24T10:09:29.295Z,6604
2018-02-24T10:10:29.546Z,6576
2018-02-24T10:11:29.548Z,6592
2018-02-24T10:12:32.448Z,6572
2018-02-24T10:13:29.762Z,6544
2018-02-24T10:14:29.753Z,6544
2018-02-24T10:15:29.498Z,6532
2018-02-24T10:16:29.814Z,6536
2018-02-24T10:17:29.213Z,6532
2018-02-24T10:18:29.201Z,6520
2018-02-24T10:19:29.443Z,6476
2018-02-24T10:20:29.440Z,6488
2018-02-24T10:21:29.778Z,6468
2018-02-24T10:22:29.156Z,6488
2018-02-24T10:23:29.405Z,6464
2018-02-24T10:24:29.403Z,6452
2018-02-24T10:25:29.384Z,6420
2018-02-24T10:56:12.498Z,5984
2018-02-24T10:57:12.467Z,5968
2018-02-24T10:58:12.439Z,5976
2018-02-24T10:59:12.430Z,5964
2018-02-24T11:00:13.518Z,5956
2018-02-24T11:01:12.668Z,5912
2018-02-24T11:02:12.639Z,5920
2018-02-24T11:03:11.873Z,5920
2018-02-24T11:04:12.379Z,5900
2018-02-24T11:05:13.008Z,5900
2018-02-24T11:06:12.693Z,5880
2018-02-24T11:07:12.337Z,5872
2018-02-24T11:08:12.306Z,5836
2018-02-24T11:09:12.314Z,5840
2018-02-24T11:10:13.459Z,5836
2018-02-24T11:11:12.592Z,5820
2018-02-24T11:12:12.529Z,5824
2018-02-24T11:13:12.540Z,5828
2018-02-24T11:14:12.265Z,5824
2018-02-24T11:15:13.872Z,5812
2018-02-24T11:16:12.643Z,5804
2018-02-24T11:17:12.217Z,5812
2018-02-24T11:18:12.466Z,5776
2018-02-24T11:19:12.450Z,5796
2018-02-24T11:20:13.502Z,5776
2018-02-24T11:21:12.507Z,5784
2018-02-24T11:22:12.427Z,5760
2018-02-24T11:23:12.406Z,5768
2018-02-24T11:24:12.140Z,5744
2018-02-24T11:25:12.964Z,5724
2018-02-24T11:26:12.595Z,5700
2018-02-24T11:27:12.128Z,5712
2018-02-24T11:28:12.359Z,5728
2018-02-24T11:29:12.166Z,5704
2018-02-24T11:30:13.910Z,5704
2018-02-24T11:31:12.633Z,5692
2018-02-24T11:32:12.324Z,5716
2018-02-24T11:33:12.335Z,5664
2018-02-24T11:34:12.299Z,5660
2018-02-24T11:35:13.530Z,5640
2018-02-24T11:36:12.218Z,5604
2018-02-24T11:37:12.286Z,5616
2018-02-24T11:38:12.011Z,5608
2018-02-24T11:39:12.236Z,5584
2018-02-24T11:40:13.067Z,5572
2018-02-24T11:41:11.974Z,5536
2018-02-24T11:42:12.238Z,5520
2018-02-24T11:43:11.957Z,5512
2018-02-24T11:44:11.954Z,5504
2018-02-24T11:45:12.777Z,5488
2018-02-24T11:46:12.384Z,5472
2018-02-24T11:47:12.165Z,5448
2018-02-24T11:48:12.159Z,5448
2018-02-24T11:49:11.384Z,5420
2018-02-24T11:50:13.073Z,5408
2018-02-24T11:51:12.525Z,5396
2018-02-24T11:52:11.624Z,5400
2018-02-24T11:53:11.852Z,5364
2018-02-24T11:54:12.100Z,5380
2018-02-24T11:55:13.165Z,5368
2018-02-24T11:56:12.088Z,5356
2018-02-24T11:57:11.804Z,5332
2018-02-24T11:58:11.551Z,5316
2018-02-24T11:59:12.042Z,5320
2018-02-24T12:00:13.207Z,5300
2018-02-24T12:01:12.367Z,5296
2018-02-24T12:02:11.796Z,5292
2018-02-24T12:03:12.024Z,5264
2018-02-24T12:04:11.991Z,5268
2018-02-24T12:05:13.037Z,5256
2018-02-24T12:06:12.112Z,5268
2018-02-24T12:07:11.713Z,5240
2018-02-24T12:08:11.437Z,5216
2018-02-24T12:09:11.700Z,5204
2018-02-24T12:10:12.936Z,5204
2018-02-24T12:11:14.116Z,5196
2018-02-24T12:12:11.677Z,5180
2018-02-24T12:13:11.918Z,5176
2018-02-24T12:14:11.390Z,5168
2018-02-24T12:15:12.731Z,5180
2018-02-24T12:16:11.873Z,5140
2018-02-24T12:17:11.638Z,5140
2018-02-24T12:18:11.353Z,5124
2018-02-24T12:19:11.859Z,5124
2018-02-24T12:20:12.438Z,5116
2018-02-24T12:21:11.841Z,5124
2018-02-24T12:22:11.821Z,5104
2018-02-24T12:23:11.555Z,5088
2018-02-24T12:24:11.029Z,5088
2018-02-24T12:25:12.999Z,5076
2018-02-24T12:26:13.444Z,5076
2018-02-24T12:27:11.546Z,5072
2018-02-24T12:28:11.527Z,5052
2018-02-24T12:29:11.505Z,5060
2018-02-24T12:30:12.580Z,5040
2018-02-24T12:31:11.737Z,5044
2018-02-24T12:32:11.478Z,5044
2018-02-24T12:33:11.516Z,5032
2018-02-24T12:34:11.198Z,5040
2018-02-24T12:35:12.082Z,5032
2018-02-24T12:36:11.213Z,5016
2018-02-24T12:37:11.698Z,5012
2018-02-24T12:38:11.164Z,4992
2018-02-24T12:39:11.487Z,4976
2018-02-24T12:40:12.496Z,4976
2018-02-24T12:41:11.622Z,4968
2018-02-24T12:42:11.660Z,4968
2018-02-24T12:43:11.376Z,4956
2018-02-24T12:44:11.365Z,4956
2018-02-24T12:45:12.789Z,4952
2018-02-24T12:46:11.609Z,4944
2018-02-24T12:47:11.598Z,4940
2018-02-24T12:48:11.328Z,4928
2018-02-24T12:49:11.062Z,4928
2018-02-24T12:50:12.716Z,4920
2018-02-24T12:51:11.415Z,4920
2018-02-24T12:52:11.144Z,4908
2018-02-24T12:53:11.046Z,4896
2018-02-24T12:54:11.277Z,4892
2018-02-24T12:55:11.692Z,4876
2018-02-24T12:56:11.720Z,4876
2018-02-24T12:57:11.247Z,4868
2018-02-24T12:58:11.503Z,4864
2018-02-24T12:59:11.248Z,4860
2018-02-24T13:00:12.043Z,4852
2018-02-24T13:01:10.952Z,4840
2018-02-24T13:02:11.459Z,4828
2018-02-24T13:03:11.450Z,4828
2018-02-24T13:04:11.040Z,4820
2018-02-24T13:05:11.859Z,4816
2018-02-24T13:06:11.552Z,4816
2018-02-24T13:07:11.159Z,4792
2018-02-24T13:08:11.267Z,4796
2018-02-24T13:09:11.205Z,4792
2018-02-24T13:10:11.891Z,4772
2018-02-24T13:11:11.235Z,4772
2018-02-24T13:12:11.322Z,4768
2018-02-24T13:13:11.134Z,4756
2018-02-24T13:14:11.093Z,4744
2018-02-24T13:15:11.852Z,4736
2018-02-24T13:16:10.852Z,4736
2018-02-24T13:17:11.376Z,4720
2018-02-24T13:18:11.314Z,4708
2018-02-24T13:19:11.049Z,4700
2018-02-24T13:20:11.930Z,4688
2018-02-24T13:21:11.025Z,4676
2018-02-24T13:22:11.276Z,4676
2018-02-24T13:23:11.269Z,4656
2018-02-24T13:24:11.001Z,4648
2018-02-24T13:25:12.361Z,4640
2018-02-24T13:26:10.980Z,4644
2018-02-24T13:27:11.215Z,4624
2018-02-24T13:28:10.961Z,4608
2018-02-24T13:29:11.207Z,4604
2018-02-24T13:30:11.296Z,4584
2018-02-24T13:31:10.968Z,4592
2018-02-24T13:32:11.175Z,4576
2018-02-24T13:33:10.917Z,4564
2018-02-24T13:34:11.164Z,4564
2018-02-24T13:35:12.188Z,4548
2018-02-24T13:36:10.634Z,4540
2018-02-24T13:37:11.127Z,4532
2018-02-24T13:38:10.663Z,4532
2018-02-24T13:39:11.108Z,4496
2018-02-24T13:40:12.311Z,4496
2018-02-24T13:41:10.581Z,4492
2018-02-24T13:42:10.369Z,4492
2018-02-24T13:43:11.068Z,4488
2018-02-24T13:44:11.060Z,4472
2018-02-24T13:45:11.328Z,4452
2018-02-24T13:46:10.534Z,4432
2018-02-24T13:47:10.533Z,4440
2018-02-24T13:48:11.037Z,4432
2018-02-24T13:49:11.030Z,4416
2018-02-24T13:50:11.687Z,4408
2018-02-24T13:51:10.758Z,4400
2018-02-24T13:52:10.744Z,4396
2018-02-24T13:53:10.994Z,4384
2018-02-24T13:54:10.732Z,4372
2018-02-24T13:55:11.916Z,4356
2018-02-24T13:56:10.992Z,4352
2018-02-24T13:57:15.998Z,4332
2018-02-24T13:58:10.684Z,4324
2018-02-24T13:59:10.934Z,4308
2018-02-24T14:00:11.935Z,4316
2018-02-24T14:01:10.656Z,4296
2018-02-24T14:02:10.389Z,4300
2018-02-24T14:03:11.229Z,4276
2018-02-24T14:04:10.883Z,4268
2018-02-24T14:05:11.122Z,4252
2018-02-24T14:06:10.884Z,4248
2018-02-24T14:07:10.604Z,4240
2018-02-24T14:08:10.851Z,4224
2018-02-24T14:09:10.865Z,4212
2018-02-24T14:10:10.774Z,4208
2018-02-24T14:11:10.828Z,4192
2018-02-24T14:12:10.815Z,4188
2018-02-24T14:13:10.661Z,4180
2018-02-24T14:14:10.794Z,4168
2018-02-24T14:15:11.173Z,4164
2018-02-24T14:16:10.791Z,4148
2018-02-24T14:17:10.524Z,4148
2018-02-24T14:18:10.761Z,4116
2018-02-24T14:19:10.753Z,4100
2018-02-24T14:20:11.899Z,4100
2018-02-24T14:21:10.228Z,4096
2018-02-24T14:22:10.485Z,4052
2018-02-24T14:23:10.219Z,4052
2018-02-24T14:24:10.452Z,4036
2018-02-24T14:25:11.578Z,4020